sensor_id;sensor_type;location;lat;lon;timestamp;temperature;humidity
52509;DHT22;38420;53.150;6.370;2023-03-20T00:01:16;6.90;99.90
52509;DHT22;38420;53.150;6.370;2023-03-20T00:03:42;7.60;99.90
52509;DHT22;38420;53.150;6.370;2023-03-20T00:06:14;7.30;99.90
52509;DHT22;38420;53.150;6.370;2023-03-20T00:08:40;6.50;99.90
52509;DHT22;38420;53.150;6.370;2023-03-20T00:14:09;7.20;99.90
52509;DHT22;38420;53.150;6.370;2023-03-20T00:16:38;6.40;99.90
52509;DHT22;38420;53.150;6.370;2023-03-20T00:19:05;7.10;99.90
52509;DHT22;38420;53.150;6.370;2023-03-20T00:21:33;7.20;99.90
52509;DHT22;38420;53.150;6.370;2023-03-20T00:23:58;7.10;99.90
52509;DHT22;38420;53.150;6.370;2023-03-20T00:26:28;7.20;99.90
52509;DHT22;38420;53.150;6.370;2023-03-20T00:28:55;7.20;99.90
52509;DHT22;38420;53.150;6.370;2023-03-20T00:31:30;7.10;99.90
52509;DHT22;38420;53.150;6.370;2023-03-20T00:33:59;6.60;99.90
52509;DHT22;38420;53.150;6.370;2023-03-20T00:36:25;7.50;99.90
52509;DHT22;38420;53.150;6.370;2023-03-20T00:38:51;6.70;99.90
52509;DHT22;38420;53.150;6.370;2023-03-20T00:46:42;6.50;99.90
52509;DHT22;38420;53.150;6.370;2023-03-20T00:49:10;6.50;99.90
52509;DHT22;38420;53.150;6.370;2023-03-20T00:51:36;7.40;99.90
52509;DHT22;38420;53.150;6.370;2023-03-20T00:54:10;7.20;99.90
52509;DHT22;38420;53.150;6.370;2023-03-20T00:57:23;7.40;99.90
52509;DHT22;38420;53.150;6.370;2023-03-20T00:59:35;6.50;99.90
52509;DHT22;38420;53.150;6.370;2023-03-20T01:02:02;7.50;99.90
52509;DHT22;38420;53.150;6.370;2023-03-20T01:04:34;6.90;99.90
52509;DHT22;38420;53.150;6.370;2023-03-20T01:07:00;7.50;99.90
52509;DHT22;38420;53.150;6.370;2023-03-20T01:09:26;7.40;99.90
52509;DHT22;38420;53.150;6.370;2023-03-20T01:11:52;6.50;99.90
52509;DHT22;38420;53.150;6.370;2023-03-20T01:14:17;7.20;99.90
52509;DHT22;38420;53.150;6.370;2023-03-20T01:16:43;7.40;99.90
52509;DHT22;38420;53.150;6.370;2023-03-20T01:19:13;6.70;99.90
52509;DHT22;38420;53.150;6.370;2023-03-20T01:21:40;7.50;99.90
52509;DHT22;38420;53.150;6.370;2023-03-20T01:24:06;6.60;99.90
52509;DHT22;38420;53.150;6.370;2023-03-20T01:26:40;6.50;99.90
52509;DHT22;38420;53.150;6.370;2023-03-20T01:29:25;6.40;99.90
52509;DHT22;38420;53.150;6.370;2023-03-20T01:31:54;6.70;99.90
52509;DHT22;38420;53.150;6.370;2023-03-20T01:34:20;6.50;99.90
52509;DHT22;38420;53.150;6.370;2023-03-20T01:36:54;7.50;99.90
52509;DHT22;38420;53.150;6.370;2023-03-20T01:39:22;7.00;99.90
52509;DHT22;38420;53.150;6.370;2023-03-20T01:41:51;6.50;99.90
52509;DHT22;38420;53.150;6.370;2023-03-20T01:46:47;6.90;99.90
52509;DHT22;38420;53.150;6.370;2023-03-20T01:51:49;7.50;99.90
52509;DHT22;38420;53.150;6.370;2023-03-20T01:54:25;7.20;99.90
52509;DHT22;38420;53.150;6.370;2023-03-20T01:56:57;7.70;99.90
52509;DHT22;38420;53.150;6.370;2023-03-20T01:59:44;6.90;99.90
52509;DHT22;38420;53.150;6.370;2023-03-20T02:02:15;6.50;99.90
52509;DHT22;38420;53.150;6.370;2023-03-20T02:04:44;6.90;99.90
52509;DHT22;38420;53.150;6.370;2023-03-20T02:07:12;7.50;99.90
52509;DHT22;38420;53.150;6.370;2023-03-20T02:09:38;6.60;99.90
52509;DHT22;38420;53.150;6.370;2023-03-20T02:12:04;7.70;99.90
52509;DHT22;38420;53.150;6.370;2023-03-20T02:14:31;6.80;99.90
52509;DHT22;38420;53.150;6.370;2023-03-20T02:16:57;6.80;99.90
52509;DHT22;38420;53.150;6.370;2023-03-20T02:19:28;7.90;99.90
52509;DHT22;38420;53.150;6.370;2023-03-20T02:28:25;7.40;99.90
52509;DHT22;38420;53.150;6.370;2023-03-20T02:31:30;7.30;99.90
52509;DHT22;38420;53.150;6.370;2023-03-20T02:34:43;6.70;99.90
52509;DHT22;38420;53.150;6.370;2023-03-20T02:37:32;6.80;99.90
52509;DHT22;38420;53.150;6.370;2023-03-20T02:40:16;7.30;99.90
52509;DHT22;38420;53.150;6.370;2023-03-20T02:45:40;7.80;99.90
52509;DHT22;38420;53.150;6.370;2023-03-20T02:50:52;8.00;99.90
52509;DHT22;38420;53.150;6.370;2023-03-20T03:02:17;6.90;99.90
52509;DHT22;38420;53.150;6.370;2023-03-20T03:04:50;6.70;99.90
52509;DHT22;38420;53.150;6.370;2023-03-20T03:07:20;7.00;99.90
52509;DHT22;38420;53.150;6.370;2023-03-20T03:10:00;6.70;99.90
52509;DHT22;38420;53.150;6.370;2023-03-20T03:12:30;7.50;99.90
52509;DHT22;38420;53.150;6.370;2023-03-20T03:15:03;7.70;99.90
52509;DHT22;38420;53.150;6.370;2023-03-20T03:17:33;7.10;99.90
52509;DHT22;38420;53.150;6.370;2023-03-20T03:20:06;6.70;99.90
52509;DHT22;38420;53.150;6.370;2023-03-20T03:22:33;7.20;99.90
52509;DHT22;38420;53.150;6.370;2023-03-20T03:25:00;7.50;99.90
52509;DHT22;38420;53.150;6.370;2023-03-20T03:27:35;6.80;99.90
52509;DHT22;38420;53.150;6.370;2023-03-20T03:30:23;6.90;99.90
52509;DHT22;38420;53.150;6.370;2023-03-20T03:33:13;8.00;99.90
52509;DHT22;38420;53.150;6.370;2023-03-20T03:35:42;8.00;99.90
52509;DHT22;38420;53.150;6.370;2023-03-20T03:38:31;7.90;99.90
52509;DHT22;38420;53.150;6.370;2023-03-20T03:48:54;7.50;99.90
52509;DHT22;38420;53.150;6.370;2023-03-20T03:51:24;7.00;99.90
52509;DHT22;38420;53.150;6.370;2023-03-20T03:54:01;7.60;99.90
52509;DHT22;38420;53.150;6.370;2023-03-20T03:56:31;7.00;99.90
52509;DHT22;38420;53.150;6.370;2023-03-20T03:59:05;7.40;99.90
52509;DHT22;38420;53.150;6.370;2023-03-20T04:01:33;7.60;99.90
52509;DHT22;38420;53.150;6.370;2023-03-20T04:04:05;7.80;99.90
52509;DHT22;38420;53.150;6.370;2023-03-20T04:06:32;7.90;99.90
52509;DHT22;38420;53.150;6.370;2023-03-20T04:08:58;7.90;99.90
52509;DHT22;38420;53.150;6.370;2023-03-20T04:11:25;7.50;99.90
52509;DHT22;38420;53.150;6.370;2023-03-20T04:13:53;7.40;99.90
52509;DHT22;38420;53.150;6.370;2023-03-20T04:16:20;7.20;99.90
52509;DHT22;38420;53.150;6.370;2023-03-20T04:18:46;7.50;99.90
52509;DHT22;38420;53.150;6.370;2023-03-20T04:21:12;7.30;99.90
52509;DHT22;38420;53.150;6.370;2023-03-20T04:23:38;7.90;99.90
52509;DHT22;38420;53.150;6.370;2023-03-20T04:26:04;7.80;99.90
52509;DHT22;38420;53.150;6.370;2023-03-20T04:28:30;7.40;99.90
52509;DHT22;38420;53.150;6.370;2023-03-20T04:30:58;7.80;99.90
52509;DHT22;38420;53.150;6.370;2023-03-20T04:33:25;7.80;99.90
52509;DHT22;38420;53.150;6.370;2023-03-20T04:35:50;7.80;99.90
52509;DHT22;38420;53.150;6.370;2023-03-20T04:38:17;7.20;99.90
52509;DHT22;38420;53.150;6.370;2023-03-20T04:40:44;7.50;99.90
52509;DHT22;38420;53.150;6.370;2023-03-20T04:43:11;7.60;99.90
52509;DHT22;38420;53.150;6.370;2023-03-20T04:45:37;7.70;99.90
52509;DHT22;38420;53.150;6.370;2023-03-20T04:48:03;7.60;99.90
52509;DHT22;38420;53.150;6.370;2023-03-20T04:50:28;7.70;99.90
52509;DHT22;38420;53.150;6.370;2023-03-20T04:52:54;7.60;99.90
52509;DHT22;38420;53.150;6.370;2023-03-20T04:55:20;7.20;99.90
52509;DHT22;38420;53.150;6.370;2023-03-20T04:57:47;7.70;99.90
52509;DHT22;38420;53.150;6.370;2023-03-20T05:00:13;7.50;99.90
52509;DHT22;38420;53.150;6.370;2023-03-20T05:02:39;7.30;99.90
52509;DHT22;38420;53.150;6.370;2023-03-20T05:05:04;7.20;99.90
52509;DHT22;38420;53.150;6.370;2023-03-20T05:07:30;7.30;99.90
52509;DHT22;38420;53.150;6.370;2023-03-20T05:09:57;7.40;99.90
52509;DHT22;38420;53.150;6.370;2023-03-20T05:12:23;7.50;99.90
52509;DHT22;38420;53.150;6.370;2023-03-20T05:14:49;7.60;99.90
52509;DHT22;38420;53.150;6.370;2023-03-20T05:17:15;7.70;99.90
52509;DHT22;38420;53.150;6.370;2023-03-20T05:19:42;7.70;99.90
52509;DHT22;38420;53.150;6.370;2023-03-20T05:22:08;7.50;99.90
52509;DHT22;38420;53.150;6.370;2023-03-20T05:24:34;7.30;99.90
52509;DHT22;38420;53.150;6.370;2023-03-20T05:27:00;7.30;99.90
52509;DHT22;38420;53.150;6.370;2023-03-20T05:29:26;7.70;99.90
52509;DHT22;38420;53.150;6.370;2023-03-20T05:31:51;7.30;99.90
52509;DHT22;38420;53.150;6.370;2023-03-20T05:34:18;7.40;99.90
52509;DHT22;38420;53.150;6.370;2023-03-20T05:36:43;7.60;99.90
52509;DHT22;38420;53.150;6.370;2023-03-20T05:39:09;7.30;99.90
52509;DHT22;38420;53.150;6.370;2023-03-20T05:41:36;7.40;99.90
52509;DHT22;38420;53.150;6.370;2023-03-20T05:44:01;7.70;99.90
52509;DHT22;38420;53.150;6.370;2023-03-20T05:46:27;7.20;99.90
52509;DHT22;38420;53.150;6.370;2023-03-20T05:48:52;7.10;99.90
52509;DHT22;38420;53.150;6.370;2023-03-20T05:51:19;7.50;99.90
52509;DHT22;38420;53.150;6.370;2023-03-20T05:53:44;7.50;99.90
52509;DHT22;38420;53.150;6.370;2023-03-20T05:56:10;7.60;99.90
52509;DHT22;38420;53.150;6.370;2023-03-20T05:58:36;7.20;99.90
52509;DHT22;38420;53.150;6.370;2023-03-20T06:01:02;7.60;99.90
52509;DHT22;38420;53.150;6.370;2023-03-20T06:03:28;7.60;99.90
52509;DHT22;38420;53.150;6.370;2023-03-20T06:05:53;7.30;99.90
52509;DHT22;38420;53.150;6.370;2023-03-20T06:08:19;7.10;99.90
52509;DHT22;38420;53.150;6.370;2023-03-20T06:10:45;7.00;99.90
52509;DHT22;38420;53.150;6.370;2023-03-20T06:13:11;7.30;99.90
52509;DHT22;38420;53.150;6.370;2023-03-20T06:15:36;7.40;99.90
52509;DHT22;38420;53.150;6.370;2023-03-20T06:18:02;7.20;99.90
52509;DHT22;38420;53.150;6.370;2023-03-20T06:20:27;7.60;99.90
52509;DHT22;38420;53.150;6.370;2023-03-20T06:22:53;7.10;99.90
52509;DHT22;38420;53.150;6.370;2023-03-20T06:25:19;7.50;99.90
52509;DHT22;38420;53.150;6.370;2023-03-20T06:27:46;7.30;99.90
52509;DHT22;38420;53.150;6.370;2023-03-20T06:30:12;7.30;99.90
52509;DHT22;38420;53.150;6.370;2023-03-20T06:32:38;7.20;99.90
52509;DHT22;38420;53.150;6.370;2023-03-20T06:35:04;7.30;99.90
52509;DHT22;38420;53.150;6.370;2023-03-20T06:37:30;7.70;99.90
52509;DHT22;38420;53.150;6.370;2023-03-20T06:39:56;7.70;99.90
52509;DHT22;38420;53.150;6.370;2023-03-20T06:42:22;7.50;99.90
52509;DHT22;38420;53.150;6.370;2023-03-20T06:44:47;7.40;99.90
52509;DHT22;38420;53.150;6.370;2023-03-20T06:47:13;7.40;99.90
52509;DHT22;38420;53.150;6.370;2023-03-20T06:49:38;7.80;99.90
52509;DHT22;38420;53.150;6.370;2023-03-20T06:52:04;7.30;99.90
52509;DHT22;38420;53.150;6.370;2023-03-20T06:54:30;7.30;99.90
52509;DHT22;38420;53.150;6.370;2023-03-20T06:56:56;7.40;99.90
52509;DHT22;38420;53.150;6.370;2023-03-20T06:59:22;7.70;99.90
52509;DHT22;38420;53.150;6.370;2023-03-20T07:01:48;7.50;99.90
52509;DHT22;38420;53.150;6.370;2023-03-20T07:04:13;7.30;99.90
52509;DHT22;38420;53.150;6.370;2023-03-20T07:06:39;7.80;99.90
52509;DHT22;38420;53.150;6.370;2023-03-20T07:09:04;7.50;99.90
52509;DHT22;38420;53.150;6.370;2023-03-20T07:11:32;8.10;99.90
52509;DHT22;38420;53.150;6.370;2023-03-20T07:13:58;7.80;99.90
52509;DHT22;38420;53.150;6.370;2023-03-20T07:16:25;7.90;99.90
52509;DHT22;38420;53.150;6.370;2023-03-20T07:18:51;7.60;99.90
52509;DHT22;38420;53.150;6.370;2023-03-20T07:21:20;7.80;99.90
52509;DHT22;38420;53.150;6.370;2023-03-20T07:23:47;8.00;99.90
52509;DHT22;38420;53.150;6.370;2023-03-20T07:26:12;7.80;99.90
52509;DHT22;38420;53.150;6.370;2023-03-20T07:28:38;8.00;99.90
52509;DHT22;38420;53.150;6.370;2023-03-20T07:31:04;7.80;99.90
52509;DHT22;38420;53.150;6.370;2023-03-20T07:33:30;7.90;99.90
52509;DHT22;38420;53.150;6.370;2023-03-20T07:35:56;8.00;99.90
52509;DHT22;38420;53.150;6.370;2023-03-20T07:38:22;7.80;99.90
52509;DHT22;38420;53.150;6.370;2023-03-20T07:40:48;8.00;99.90
52509;DHT22;38420;53.150;6.370;2023-03-20T07:43:17;7.90;99.90
52509;DHT22;38420;53.150;6.370;2023-03-20T07:45:42;7.90;99.90
52509;DHT22;38420;53.150;6.370;2023-03-20T07:48:08;8.20;99.90
52509;DHT22;38420;53.150;6.370;2023-03-20T07:50:34;8.00;99.90
52509;DHT22;38420;53.150;6.370;2023-03-20T07:52:59;8.00;99.90
52509;DHT22;38420;53.150;6.370;2023-03-20T07:55:25;7.90;99.90
52509;DHT22;38420;53.150;6.370;2023-03-20T07:57:51;8.00;99.90
52509;DHT22;38420;53.150;6.370;2023-03-20T08:00:17;8.00;99.90
52509;DHT22;38420;53.150;6.370;2023-03-20T08:02:43;8.30;99.90
52509;DHT22;38420;53.150;6.370;2023-03-20T08:05:09;8.30;99.90
52509;DHT22;38420;53.150;6.370;2023-03-20T08:07:35;8.40;99.90
52509;DHT22;38420;53.150;6.370;2023-03-20T08:10:02;8.10;99.90
52509;DHT22;38420;53.150;6.370;2023-03-20T08:12:27;8.10;99.90
52509;DHT22;38420;53.150;6.370;2023-03-20T08:14:53;8.50;99.90
52509;DHT22;38420;53.150;6.370;2023-03-20T08:17:19;8.50;99.90
52509;DHT22;38420;53.150;6.370;2023-03-20T08:19:45;8.40;99.90
52509;DHT22;38420;53.150;6.370;2023-03-20T08:22:11;8.50;99.90
52509;DHT22;38420;53.150;6.370;2023-03-20T08:24:36;8.40;99.90
52509;DHT22;38420;53.150;6.370;2023-03-20T08:27:02;8.40;99.90
52509;DHT22;38420;53.150;6.370;2023-03-20T08:29:27;8.60;99.90
52509;DHT22;38420;53.150;6.370;2023-03-20T08:31:53;8.50;99.90
52509;DHT22;38420;53.150;6.370;2023-03-20T08:34:19;8.40;99.90
52509;DHT22;38420;53.150;6.370;2023-03-20T08:36:44;8.40;99.90
52509;DHT22;38420;53.150;6.370;2023-03-20T08:39:10;8.40;99.90
52509;DHT22;38420;53.150;6.370;2023-03-20T08:41:36;8.60;99.90
52509;DHT22;38420;53.150;6.370;2023-03-20T08:44:04;8.70;99.90
52509;DHT22;38420;53.150;6.370;2023-03-20T08:46:29;8.50;99.90
52509;DHT22;38420;53.150;6.370;2023-03-20T08:48:55;8.50;99.90
52509;DHT22;38420;53.150;6.370;2023-03-20T08:51:23;8.70;99.90
52509;DHT22;38420;53.150;6.370;2023-03-20T08:53:49;8.80;99.90
52509;DHT22;38420;53.150;6.370;2023-03-20T08:56:15;8.80;99.90
52509;DHT22;38420;53.150;6.370;2023-03-20T08:58:40;8.80;99.90
52509;DHT22;38420;53.150;6.370;2023-03-20T09:01:07;8.70;99.90
52509;DHT22;38420;53.150;6.370;2023-03-20T09:03:33;8.90;99.90
52509;DHT22;38420;53.150;6.370;2023-03-20T09:05:59;8.90;99.90
52509;DHT22;38420;53.150;6.370;2023-03-20T09:08:25;8.80;99.90
52509;DHT22;38420;53.150;6.370;2023-03-20T09:10:51;8.80;99.90
52509;DHT22;38420;53.150;6.370;2023-03-20T09:13:17;9.10;99.90
52509;DHT22;38420;53.150;6.370;2023-03-20T09:15:43;8.90;99.90
52509;DHT22;38420;53.150;6.370;2023-03-20T09:18:09;9.00;99.90
52509;DHT22;38420;53.150;6.370;2023-03-20T09:20:34;9.20;99.90
52509;DHT22;38420;53.150;6.370;2023-03-20T09:23:00;9.30;99.90
52509;DHT22;38420;53.150;6.370;2023-03-20T09:25:26;9.10;99.90
52509;DHT22;38420;53.150;6.370;2023-03-20T09:27:52;9.30;99.90
52509;DHT22;38420;53.150;6.370;2023-03-20T09:30:21;9.30;99.90
52509;DHT22;38420;53.150;6.370;2023-03-20T09:32:48;9.20;99.90
52509;DHT22;38420;53.150;6.370;2023-03-20T09:35:14;9.20;99.90
52509;DHT22;38420;53.150;6.370;2023-03-20T09:37:40;9.20;99.90
52509;DHT22;38420;53.150;6.370;2023-03-20T09:40:06;9.20;99.90
52509;DHT22;38420;53.150;6.370;2023-03-20T09:49:01;9.30;99.90
52509;DHT22;38420;53.150;6.370;2023-03-20T09:51:30;9.30;99.90
52509;DHT22;38420;53.150;6.370;2023-03-20T09:54:47;9.50;99.90
52509;DHT22;38420;53.150;6.370;2023-03-20T09:56:54;9.50;99.90
52509;DHT22;38420;53.150;6.370;2023-03-20T09:59:23;9.40;99.90
52509;DHT22;38420;53.150;6.370;2023-03-20T10:01:56;9.60;99.90
52509;DHT22;38420;53.150;6.370;2023-03-20T10:04:26;9.70;99.90
52509;DHT22;38420;53.150;6.370;2023-03-20T10:06:53;9.80;99.90
52509;DHT22;38420;53.150;6.370;2023-03-20T10:09:25;9.70;99.90
52509;DHT22;38420;53.150;6.370;2023-03-20T10:21:04;9.80;99.90
52509;DHT22;38420;53.150;6.370;2023-03-20T10:23:35;9.80;99.90
52509;DHT22;38420;53.150;6.370;2023-03-20T10:26:13;9.70;99.90
52509;DHT22;38420;53.150;6.370;2023-03-20T10:29:53;9.70;99.90
52509;DHT22;38420;53.150;6.370;2023-03-20T10:31:50;9.70;99.90
52509;DHT22;38420;53.150;6.370;2023-03-20T10:42:50;9.90;99.90
52509;DHT22;38420;53.150;6.370;2023-03-20T10:47:45;10.10;99.90
52509;DHT22;38420;53.150;6.370;2023-03-20T10:50:18;10.00;99.90
52509;DHT22;38420;53.150;6.370;2023-03-20T10:52:46;10.00;99.90
52509;DHT22;38420;53.150;6.370;2023-03-20T10:55:20;9.80;99.90
52509;DHT22;38420;53.150;6.370;2023-03-20T10:57:51;9.80;99.90
52509;DHT22;38420;53.150;6.370;2023-03-20T11:00:24;9.90;99.90
52509;DHT22;38420;53.150;6.370;2023-03-20T11:02:50;9.70;99.90
52509;DHT22;38420;53.150;6.370;2023-03-20T11:05:34;9.60;99.90
52509;DHT22;38420;53.150;6.370;2023-03-20T11:08:11;9.70;99.90
52509;DHT22;38420;53.150;6.370;2023-03-20T11:10:38;9.60;99.90
52509;DHT22;38420;53.150;6.370;2023-03-20T11:13:22;9.60;99.90
52509;DHT22;38420;53.150;6.370;2023-03-20T11:15:51;9.70;99.90
52509;DHT22;38420;53.150;6.370;2023-03-20T11:18:17;9.60;99.90
52509;DHT22;38420;53.150;6.370;2023-03-20T11:20:45;9.80;99.90
52509;DHT22;38420;53.150;6.370;2023-03-20T11:23:15;9.60;99.90
52509;DHT22;38420;53.150;6.370;2023-03-20T11:28:31;9.50;99.90
52509;DHT22;38420;53.150;6.370;2023-03-20T11:33:44;9.60;99.90
52509;DHT22;38420;53.150;6.370;2023-03-20T11:36:19;9.50;99.90
52509;DHT22;38420;53.150;6.370;2023-03-20T11:38:46;9.40;99.90
52509;DHT22;38420;53.150;6.370;2023-03-20T11:41:26;9.40;99.90
52509;DHT22;38420;53.150;6.370;2023-03-20T11:43:52;9.40;99.90
52509;DHT22;38420;53.150;6.370;2023-03-20T11:46:20;9.30;99.90
52509;DHT22;38420;53.150;6.370;2023-03-20T11:49:04;9.30;99.90
52509;DHT22;38420;53.150;6.370;2023-03-20T11:51:32;9.20;99.90
52509;DHT22;38420;53.150;6.370;2023-03-20T11:54:06;9.20;99.90
52509;DHT22;38420;53.150;6.370;2023-03-20T11:56:35;9.30;99.90
52509;DHT22;38420;53.150;6.370;2023-03-20T11:59:13;9.10;99.90
52509;DHT22;38420;53.150;6.370;2023-03-20T12:01:42;9.10;99.90
52509;DHT22;38420;53.150;6.370;2023-03-20T12:04:15;9.10;99.90
52509;DHT22;38420;53.150;6.370;2023-03-20T12:06:52;9.10;99.90
52509;DHT22;38420;53.150;6.370;2023-03-20T12:15:03;8.70;99.90
52509;DHT22;38420;53.150;6.370;2023-03-20T12:18:00;9.00;99.90
52509;DHT22;38420;53.150;6.370;2023-03-20T12:23:50;8.70;99.90
52509;DHT22;38420;53.150;6.370;2023-03-20T12:31:38;8.80;99.90
52509;DHT22;38420;53.150;6.370;2023-03-20T12:34:16;8.90;99.90
52509;DHT22;38420;53.150;6.370;2023-03-20T12:36:48;8.90;99.90
52509;DHT22;38420;53.150;6.370;2023-03-20T12:39:17;8.70;99.90
52509;DHT22;38420;53.150;6.370;2023-03-20T12:44:38;8.40;99.90
52509;DHT22;38420;53.150;6.370;2023-03-20T12:47:31;8.40;99.90
52509;DHT22;38420;53.150;6.370;2023-03-20T12:58:15;8.40;99.90
52509;DHT22;38420;53.150;6.370;2023-03-20T13:00:51;8.90;99.90
52509;DHT22;38420;53.150;6.370;2023-03-20T13:11:40;8.90;99.90
52509;DHT22;38420;53.150;6.370;2023-03-20T13:17:22;8.80;99.90
52509;DHT22;38420;53.150;6.370;2023-03-20T13:34:16;8.80;99.90
52509;DHT22;38420;53.150;6.370;2023-03-20T13:39:50;8.50;99.90
52509;DHT22;38420;53.150;6.370;2023-03-20T13:42:20;7.80;99.90
52509;DHT22;38420;53.150;6.370;2023-03-20T13:44:48;8.10;99.90
52509;DHT22;38420;53.150;6.370;2023-03-20T13:47:25;8.00;99.90
52509;DHT22;38420;53.150;6.370;2023-03-20T13:49:57;8.90;99.90
52509;DHT22;38420;53.150;6.370;2023-03-20T13:52:47;9.00;99.90
52509;DHT22;38420;53.150;6.370;2023-03-20T13:55:16;7.80;99.90
52509;DHT22;38420;53.150;6.370;2023-03-20T14:05:46;7.70;99.90
52509;DHT22;38420;53.150;6.370;2023-03-20T14:14:16;8.30;99.90
52509;DHT22;38420;53.150;6.370;2023-03-20T14:16:44;7.70;99.90
52509;DHT22;38420;53.150;6.370;2023-03-20T14:19:21;9.00;99.90
52509;DHT22;38420;53.150;6.370;2023-03-20T14:21:53;8.40;99.90
52509;DHT22;38420;53.150;6.370;2023-03-20T14:24:19;7.80;99.90
52509;DHT22;38420;53.150;6.370;2023-03-20T14:26:52;7.70;99.90
52509;DHT22;38420;53.150;6.370;2023-03-20T14:32:05;7.50;99.90
52509;DHT22;38420;53.150;6.370;2023-03-20T14:34:47;7.70;99.90
52509;DHT22;38420;53.150;6.370;2023-03-20T14:40:17;7.60;99.90
52509;DHT22;38420;53.150;6.370;2023-03-20T14:42:57;8.80;99.90
52509;DHT22;38420;53.150;6.370;2023-03-20T14:48:05;8.90;99.90
52509;DHT22;38420;53.150;6.370;2023-03-20T14:53:15;9.00;99.90
52509;DHT22;38420;53.150;6.370;2023-03-20T14:58:34;7.60;99.90
52509;DHT22;38420;53.150;6.370;2023-03-20T15:01:02;8.90;99.90
52509;DHT22;38420;53.150;6.370;2023-03-20T15:03:29;9.40;99.90
52509;DHT22;38420;53.150;6.370;2023-03-20T15:06:00;8.90;99.90
52509;DHT22;38420;53.150;6.370;2023-03-20T15:08:30;8.40;99.90
52509;DHT22;38420;53.150;6.370;2023-03-20T15:10:58;7.60;99.90
52509;DHT22;38420;53.150;6.370;2023-03-20T15:13:25;7.60;99.90
52509;DHT22;38420;53.150;6.370;2023-03-20T15:16:08;7.60;99.90
52509;DHT22;38420;53.150;6.370;2023-03-20T15:21:14;8.30;99.90
52509;DHT22;38420;53.150;6.370;2023-03-20T15:23:41;7.60;99.90
52509;DHT22;38420;53.150;6.370;2023-03-20T15:26:07;7.50;99.90
52509;DHT22;38420;53.150;6.370;2023-03-20T15:28:33;8.00;99.90
52509;DHT22;38420;53.150;6.370;2023-03-20T15:31:02;9.00;99.90
52509;DHT22;38420;53.150;6.370;2023-03-20T15:33:34;9.10;99.90
52509;DHT22;38420;53.150;6.370;2023-03-20T15:36:32;8.40;99.90
52509;DHT22;38420;53.150;6.370;2023-03-20T15:39:05;8.50;99.90
52509;DHT22;38420;53.150;6.370;2023-03-20T15:41:34;8.50;99.90
52509;DHT22;38420;53.150;6.370;2023-03-20T15:46:50;8.80;99.90
52509;DHT22;38420;53.150;6.370;2023-03-20T15:49:17;7.80;99.90
52509;DHT22;38420;53.150;6.370;2023-03-20T15:51:43;9.40;99.90
52509;DHT22;38420;53.150;6.370;2023-03-20T15:54:13;9.40;99.90
52509;DHT22;38420;53.150;6.370;2023-03-20T15:56:41;8.10;99.90
52509;DHT22;38420;53.150;6.370;2023-03-20T15:59:13;9.20;99.90
52509;DHT22;38420;53.150;6.370;2023-03-20T16:01:40;8.20;99.90
52509;DHT22;38420;53.150;6.370;2023-03-20T16:04:06;8.40;99.90
52509;DHT22;38420;53.150;6.370;2023-03-20T16:06:33;7.80;99.90
52509;DHT22;38420;53.150;6.370;2023-03-20T16:09:06;8.00;99.90
52509;DHT22;38420;53.150;6.370;2023-03-20T16:11:40;7.80;99.90
52509;DHT22;38420;53.150;6.370;2023-03-20T16:14:09;7.90;99.90
52509;DHT22;38420;53.150;6.370;2023-03-20T16:16:36;7.90;99.90
52509;DHT22;38420;53.150;6.370;2023-03-20T16:19:06;8.00;99.90
52509;DHT22;38420;53.150;6.370;2023-03-20T16:21:39;7.90;99.90
52509;DHT22;38420;53.150;6.370;2023-03-20T16:24:14;9.20;99.90
52509;DHT22;38420;53.150;6.370;2023-03-20T16:26:43;8.00;99.90
52509;DHT22;38420;53.150;6.370;2023-03-20T16:29:12;7.90;99.90
52509;DHT22;38420;53.150;6.370;2023-03-20T16:31:44;8.80;99.90
52509;DHT22;38420;53.150;6.370;2023-03-20T16:34:20;7.90;99.90
52509;DHT22;38420;53.150;6.370;2023-03-20T16:36:52;9.40;99.90
52509;DHT22;38420;53.150;6.370;2023-03-20T16:39:22;9.20;99.90
52509;DHT22;38420;53.150;6.370;2023-03-20T16:44:34;9.40;99.90
52509;DHT22;38420;53.150;6.370;2023-03-20T16:47:02;8.20;99.90
52509;DHT22;38420;53.150;6.370;2023-03-20T16:52:12;9.50;99.90
52509;DHT22;38420;53.150;6.370;2023-03-20T16:54:39;9.60;99.90
52509;DHT22;38420;53.150;6.370;2023-03-20T16:57:12;9.50;99.90
52509;DHT22;38420;53.150;6.370;2023-03-20T16:59:39;9.50;99.90
52509;DHT22;38420;53.150;6.370;2023-03-20T17:02:11;7.90;99.90
52509;DHT22;38420;53.150;6.370;2023-03-20T17:04:41;9.50;99.90
52509;DHT22;38420;53.150;6.370;2023-03-20T17:07:17;9.60;99.90
52509;DHT22;38420;53.150;6.370;2023-03-20T17:12:39;9.00;99.90
52509;DHT22;38420;53.150;6.370;2023-03-20T17:15:05;9.50;99.90
52509;DHT22;38420;53.150;6.370;2023-03-20T17:17:31;8.40;99.90
52509;DHT22;38420;53.150;6.370;2023-03-20T17:19:57;9.40;99.90
52509;DHT22;38420;53.150;6.370;2023-03-20T17:22:25;9.00;99.90
52509;DHT22;38420;53.150;6.370;2023-03-20T17:24:51;9.60;99.90
52509;DHT22;38420;53.150;6.370;2023-03-20T17:27:18;9.40;99.90
52509;DHT22;38420;53.150;6.370;2023-03-20T17:29:45;9.00;99.90
52509;DHT22;38420;53.150;6.370;2023-03-20T17:32:13;8.00;99.90
52509;DHT22;38420;53.150;6.370;2023-03-20T17:34:39;9.20;99.90
52509;DHT22;38420;53.150;6.370;2023-03-20T17:37:08;8.30;99.90
52509;DHT22;38420;53.150;6.370;2023-03-20T17:39:35;8.00;99.90
52509;DHT22;38420;53.150;6.370;2023-03-20T17:42:01;8.10;99.90
52509;DHT22;38420;53.150;6.370;2023-03-20T17:44:26;8.10;99.90
52509;DHT22;38420;53.150;6.370;2023-03-20T17:46:52;8.10;99.90
52509;DHT22;38420;53.150;6.370;2023-03-20T17:49:18;8.60;99.90
52509;DHT22;38420;53.150;6.370;2023-03-20T17:51:47;9.40;99.90
52509;DHT22;38420;53.150;6.370;2023-03-20T17:54:13;8.20;99.90
52509;DHT22;38420;53.150;6.370;2023-03-20T17:56:38;7.90;99.90
52509;DHT22;38420;53.150;6.370;2023-03-20T17:59:12;9.20;99.90
52509;DHT22;38420;53.150;6.370;2023-03-20T18:01:38;8.60;99.90
52509;DHT22;38420;53.150;6.370;2023-03-20T18:04:04;7.90;99.90
52509;DHT22;38420;53.150;6.370;2023-03-20T18:06:32;9.50;99.90
52509;DHT22;38420;53.150;6.370;2023-03-20T18:08:59;7.90;99.90
52509;DHT22;38420;53.150;6.370;2023-03-20T18:11:27;9.60;99.90
52509;DHT22;38420;53.150;6.370;2023-03-20T18:13:52;8.10;99.90
52509;DHT22;38420;53.150;6.370;2023-03-20T18:16:23;9.20;99.90
52509;DHT22;38420;53.150;6.370;2023-03-20T18:18:49;7.90;99.90
52509;DHT22;38420;53.150;6.370;2023-03-20T18:21:16;8.20;99.90
52509;DHT22;38420;53.150;6.370;2023-03-20T18:23:42;8.00;99.90
52509;DHT22;38420;53.150;6.370;2023-03-20T18:28:42;8.00;99.90
52509;DHT22;38420;53.150;6.370;2023-03-20T18:31:09;7.90;99.90
52509;DHT22;38420;53.150;6.370;2023-03-20T18:33:37;8.20;99.90
52509;DHT22;38420;53.150;6.370;2023-03-20T18:36:03;9.60;99.90
52509;DHT22;38420;53.150;6.370;2023-03-20T18:38:28;9.60;99.90
52509;DHT22;38420;53.150;6.370;2023-03-20T18:40:55;8.00;99.90
52509;DHT22;38420;53.150;6.370;2023-03-20T18:43:21;9.50;99.90
52509;DHT22;38420;53.150;6.370;2023-03-20T18:45:46;9.60;99.90
52509;DHT22;38420;53.150;6.370;2023-03-20T18:48:13;7.90;99.90
52509;DHT22;38420;53.150;6.370;2023-03-20T18:50:39;9.60;99.90